createdAt,value
2023-03-27T00:00:38.492Z,0.6103
2023-03-27T00:01:40.105Z,0.4750
2023-03-27T00:02:41.958Z,0.4849
2023-03-27T00:03:43.525Z,0.3769
2023-03-27T00:04:45.062Z,0.3905
2023-03-27T00:05:46.733Z,0.2858
2023-03-27T00:06:48.357Z,0.3550
2023-03-27T00:07:50.016Z,0.5028
2023-03-27T00:08:51.657Z,0.3905
2023-03-27T00:09:53.327Z,0.4457
2023-03-27T00:10:55.178Z,0.4414
2023-03-27T00:11:56.617Z,0.4428
2023-03-27T00:12:58.255Z,0.4359
2023-03-27T00:13:59.926Z,0.5749
2023-03-27T00:15:01.537Z,0.4468
2023-03-27T00:16:03.254Z,0.3679
2023-03-27T00:17:04.883Z,0.3694
2023-03-27T00:18:06.552Z,0.4682
2023-03-27T00:19:08.150Z,0.3880
2023-03-27T00:20:09.833Z,0.4311
2023-03-27T00:21:11.513Z,0.4850
2023-03-27T00:22:13.129Z,0.4734
2023-03-27T00:23:14.767Z,0.4660
2023-03-27T00:24:16.435Z,0.4568
2023-03-27T00:25:18.063Z,0.4344
2023-03-27T00:26:19.758Z,0.5944
2023-03-27T00:27:21.371Z,0.3259
2023-03-27T00:28:23.030Z,0.3854
2023-03-27T00:29:24.672Z,0.3105
2023-03-27T00:30:26.325Z,0.4936
2023-03-27T00:31:28.079Z,0.4472
2023-03-27T00:32:29.653Z,0.4990
2023-03-27T00:33:31.300Z,0.3574
2023-03-27T00:34:32.924Z,0.4660
2023-03-27T00:35:34.672Z,0.5541
2023-03-27T00:36:36.248Z,0.4416
2023-03-27T00:37:37.897Z,0.7064
2023-03-27T00:38:39.740Z,0.4965
2023-03-27T00:39:41.222Z,0.5184
2023-03-27T00:40:42.855Z,0.3604
2023-03-27T00:41:44.531Z,0.3122
2023-03-27T00:42:46.152Z,0.3701
2023-03-27T00:43:47.816Z,0.4258
2023-03-27T00:44:49.442Z,0.2793
2023-03-27T00:45:51.126Z,0.4496
2023-03-27T00:46:52.803Z,0.4653
2023-03-27T00:47:54.428Z,0.5244
2023-03-27T00:48:56.047Z,0.4045
2023-03-27T00:49:57.728Z,0.3942
2023-03-27T00:50:59.356Z,0.6063
2023-03-27T00:52:01.058Z,0.2708
2023-03-27T00:53:02.657Z,0.4442
2023-03-27T00:54:04.329Z,0.1954
2023-03-27T00:55:05.985Z,0.2946
2023-03-27T00:56:07.650Z,0.4019
2023-03-27T00:57:09.333Z,0.3929
2023-03-27T00:58:10.946Z,0.4915
2023-03-27T00:59:12.606Z,0.4268
2023-03-27T01:00:14.282Z,0.3548
2023-03-27T01:01:15.904Z,0.3238
2023-03-27T01:02:17.596Z,0.3679
2023-03-27T01:03:19.275Z,0.2665
2023-03-27T01:04:20.849Z,0.3563
2023-03-27T01:05:22.487Z,0.3125
2023-03-27T01:06:24.149Z,0.4025
2023-03-27T01:07:25.788Z,0.6402
2023-03-27T01:08:27.451Z,0.3591
2023-03-27T01:09:29.084Z,0.4314
2023-03-27T01:10:30.753Z,0.4589
2023-03-27T01:11:32.386Z,0.4478
2023-03-27T01:12:34.069Z,0.4569
2023-03-27T01:13:35.693Z,0.2938
2023-03-27T01:14:37.362Z,0.3045
2023-03-27T01:15:39.013Z,0.3101
2023-03-27T01:16:40.663Z,0.3953
2023-03-27T01:17:42.358Z,0.6033
2023-03-27T01:18:43.946Z,0.4152
2023-03-27T01:19:45.594Z,0.3177
2023-03-27T01:20:47.345Z,0.2796
2023-03-27T01:21:48.904Z,0.4767
2023-03-27T01:22:50.599Z,0.3418
2023-03-27T01:23:59.354Z,0.4893
2023-03-27T01:24:53.889Z,0.3288
2023-03-27T01:25:55.500Z,0.3367
2023-03-27T01:26:57.168Z,0.3569
2023-03-27T01:27:58.832Z,0.4316
2023-03-27T01:29:00.477Z,0.3835
2023-03-27T01:30:02.109Z,0.3982
2023-03-27T01:31:03.798Z,0.3363
2023-03-27T01:32:05.414Z,0.4099
2023-03-27T01:33:07.174Z,0.2833
2023-03-27T01:34:08.718Z,0.2196
2023-03-27T01:35:10.398Z,0.3780
2023-03-27T01:36:12.042Z,0.2726
2023-03-27T01:37:13.706Z,0.5195
2023-03-27T01:38:15.355Z,0.3609
2023-03-27T01:39:17.013Z,0.3131
2023-03-27T01:40:18.639Z,0.2585
2023-03-27T01:41:20.316Z,0.3592
2023-03-27T01:42:21.948Z,0.3277
2023-03-27T01:43:23.647Z,0.3438
2023-03-27T01:44:25.247Z,0.3688
2023-03-27T01:45:26.919Z,0.3562
2023-03-27T01:46:28.587Z,0.3390
2023-03-27T01:47:30.237Z,0.2547
2023-03-27T01:48:31.929Z,0.3862
2023-03-27T01:49:33.531Z,0.3981
2023-03-27T01:50:35.152Z,0.2566
2023-03-27T01:51:36.839Z,0.3607
2023-03-27T01:52:38.488Z,0.4347
2023-03-27T01:53:40.294Z,0.2606
2023-03-27T01:54:41.782Z,0.2450
2023-03-27T01:55:43.441Z,0.3854
2023-03-27T01:56:45.091Z,0.2692
2023-03-27T01:57:48.961Z,0.3303
2023-03-27T01:58:48.405Z,0.3691
2023-03-27T01:59:50.061Z,0.3823
2023-03-27T02:01:04.110Z,0.3311
2023-03-27T02:01:53.357Z,0.2942
2023-03-27T02:02:55.009Z,0.2753
2023-03-27T02:03:56.701Z,0.3222
2023-03-27T02:04:58.322Z,0.3913
2023-03-27T02:05:59.962Z,0.3321
2023-03-27T02:07:01.597Z,0.4211
2023-03-27T02:08:03.282Z,0.3539
2023-03-27T02:09:04.911Z,0.3067
2023-03-27T02:10:06.581Z,0.4101
2023-03-27T02:11:08.284Z,0.3557
2023-03-27T02:12:09.946Z,0.2503
2023-03-27T02:13:11.584Z,0.3027
2023-03-27T02:14:13.278Z,0.2991
2023-03-27T02:15:23.659Z,0.3207
2023-03-27T02:16:16.641Z,0.3214
2023-03-27T02:17:18.201Z,0.3010
2023-03-27T02:18:19.881Z,0.2633
2023-03-27T02:19:21.537Z,0.2326
2023-03-27T02:20:23.186Z,0.3616
2023-03-27T02:21:24.846Z,0.3267
2023-03-27T02:22:38.137Z,0.1891
2023-03-27T02:23:28.132Z,0.3565
2023-03-27T02:24:29.867Z,0.3557
2023-03-27T02:25:31.457Z,0.2676
2023-03-27T02:26:33.125Z,0.2576
2023-03-27T02:27:34.743Z,0.3330
2023-03-27T02:28:36.415Z,0.5256
2023-03-27T02:29:38.080Z,0.1830
2023-03-27T02:30:39.735Z,0.2137
2023-03-27T02:31:41.430Z,0.2845
2023-03-27T02:32:43.163Z,0.2399
2023-03-27T02:33:44.681Z,0.2132
2023-03-27T02:34:46.338Z,0.2778
2023-03-27T02:35:48.022Z,0.2481
2023-03-27T02:36:49.646Z,0.2196
2023-03-27T02:37:51.314Z,0.1725
2023-03-27T02:38:52.950Z,0.2216
2023-03-27T02:39:54.638Z,0.2371
2023-03-27T02:40:56.396Z,0.3573
2023-03-27T02:41:57.911Z,0.3299
2023-03-27T02:42:59.577Z,0.4155
2023-03-27T02:44:01.233Z,0.3370
2023-03-27T02:45:02.891Z,0.3618
2023-03-27T02:46:04.625Z,0.3802
2023-03-27T02:47:06.181Z,0.3018
2023-03-27T02:48:07.900Z,0.5675
2023-03-27T02:49:09.484Z,0.2916
2023-03-27T02:50:11.227Z,0.3479
2023-03-27T02:51:12.803Z,0.2922
2023-03-27T02:52:14.464Z,0.2608
2023-03-27T02:53:16.104Z,0.2630
2023-03-27T02:54:17.766Z,0.2853
2023-03-27T02:55:19.426Z,0.2181
2023-03-27T02:56:21.097Z,0.1847
2023-03-27T02:57:24.967Z,0.2905
2023-03-27T02:58:24.391Z,0.2720
2023-03-27T02:59:26.016Z,0.2338
2023-03-27T03:00:27.712Z,0.2412
2023-03-27T03:01:29.365Z,0.3686
2023-03-27T03:02:31.065Z,0.3953
2023-03-27T03:03:32.646Z,0.2982
2023-03-27T03:04:34.307Z,0.3084
2023-03-27T03:05:35.961Z,0.2440
2023-03-27T03:06:37.608Z,0.2476
2023-03-27T03:07:39.248Z,0.1832
2023-03-27T03:08:40.919Z,0.1989
2023-03-27T03:09:42.555Z,0.3973
2023-03-27T03:10:44.241Z,0.3142
2023-03-27T03:11:45.849Z,0.2676
2023-03-27T03:12:47.515Z,0.2327
2023-03-27T03:13:49.147Z,0.2449
2023-03-27T03:14:50.831Z,0.3421
2023-03-27T03:15:52.507Z,0.2505
2023-03-27T03:16:54.177Z,0.1965
2023-03-27T03:17:55.780Z,0.2098
2023-03-27T03:18:57.451Z,0.1848
2023-03-27T03:19:59.069Z,0.2574
2023-03-27T03:21:00.782Z,0.2214
2023-03-27T03:22:02.386Z,0.3642
2023-03-27T03:23:04.056Z,0.2503
2023-03-27T03:24:05.696Z,0.3931
2023-03-27T03:25:07.370Z,0.2732
2023-03-27T03:26:09.022Z,0.2241
2023-03-27T03:27:10.693Z,0.2947
2023-03-27T03:28:12.303Z,0.3747
2023-03-27T03:29:13.972Z,0.2852
2023-03-27T03:30:16.985Z,0.3448
2023-03-27T03:31:17.362Z,0.2987
2023-03-27T03:32:18.916Z,0.1603
2023-03-27T03:33:20.582Z,0.3087
2023-03-27T03:34:22.203Z,0.2380
2023-03-27T03:35:23.898Z,0.1855
2023-03-27T03:36:25.526Z,0.3490
2023-03-27T03:37:27.178Z,0.2245
2023-03-27T03:38:28.815Z,0.2514
2023-03-27T03:39:30.490Z,0.3500
2023-03-27T03:40:32.112Z,0.2562
2023-03-27T03:41:33.804Z,0.2659
2023-03-27T03:42:35.422Z,0.2344
2023-03-27T03:43:37.086Z,0.3168
2023-03-27T03:44:38.741Z,0.3243
2023-03-27T03:45:40.395Z,0.1831
2023-03-27T03:46:42.041Z,0.2856
2023-03-27T03:47:43.725Z,0.2658
2023-03-27T03:48:45.317Z,0.2753
2023-03-27T03:49:46.993Z,0.3244
2023-03-27T03:50:48.623Z,0.2263
2023-03-27T03:52:03.775Z,0.2642
2023-03-27T03:52:51.921Z,0.3030
2023-03-27T03:53:53.586Z,0.3043
2023-03-27T03:54:55.239Z,0.2459
2023-03-27T03:55:56.883Z,0.4177
2023-03-27T03:56:58.557Z,0.2423
2023-03-27T03:58:00.192Z,0.2628
2023-03-27T03:59:01.846Z,0.2466
2023-03-27T04:00:03.504Z,0.2767
2023-03-27T04:01:05.126Z,0.1809
2023-03-27T04:02:06.837Z,0.4167
2023-03-27T04:03:08.640Z,0.2894
2023-03-27T04:04:10.104Z,0.3131
2023-03-27T04:05:11.745Z,0.2674
2023-03-27T04:06:13.419Z,0.2815
2023-03-27T04:07:15.060Z,0.2063
2023-03-27T04:08:16.715Z,0.2042
2023-03-27T04:09:18.341Z,0.2157
2023-03-27T04:10:20.048Z,0.2907
2023-03-27T04:11:21.660Z,0.2551
2023-03-27T04:12:23.353Z,0.1675
2023-03-27T04:13:24.987Z,0.2923
2023-03-27T04:14:26.622Z,0.2533
2023-03-27T04:15:28.266Z,0.2555
2023-03-27T04:16:29.994Z,0.2549
2023-03-27T04:17:31.622Z,0.2233
2023-03-27T04:18:33.367Z,0.3520
2023-03-27T04:19:34.888Z,0.2803
2023-03-27T04:20:36.537Z,0.2931
2023-03-27T04:21:38.158Z,0.2384
2023-03-27T04:22:39.847Z,0.3388
2023-03-27T04:23:41.463Z,0.2159
2023-03-27T04:24:43.140Z,0.2361
2023-03-27T04:25:44.810Z,0.3592
2023-03-27T04:26:46.441Z,0.3178
2023-03-27T04:27:48.088Z,0.4077
2023-03-27T04:28:49.730Z,0.4871
2023-03-27T04:29:51.369Z,0.4612
2023-03-27T04:30:53.038Z,0.3792
2023-03-27T04:31:54.681Z,0.2986
2023-03-27T04:32:56.389Z,0.2672
2023-03-27T04:33:57.977Z,0.3624
2023-03-27T04:34:59.651Z,0.3251
2023-03-27T04:36:06.360Z,0.3596
2023-03-27T04:37:02.958Z,0.6421
2023-03-27T04:38:04.616Z,0.9205
2023-03-27T04:39:06.260Z,1.0120
2023-03-27T04:40:07.892Z,1.2965
2023-03-27T04:41:09.545Z,1.3063
2023-03-27T04:42:11.178Z,1.5574
2023-03-27T04:43:12.887Z,1.1987
2023-03-27T04:44:14.493Z,1.3182
2023-03-27T04:45:16.190Z,1.1852
2023-03-27T04:46:17.825Z,1.1483
2023-03-27T04:47:19.476Z,1.2800
2023-03-27T04:48:21.140Z,1.1555
2023-03-27T04:49:22.780Z,1.2634
2023-03-27T04:50:24.403Z,1.3291
2023-03-27T04:51:26.089Z,1.0255
2023-03-27T04:52:27.725Z,1.3110
2023-03-27T04:53:29.556Z,1.2157
2023-03-27T04:54:31.055Z,1.3994
2023-03-27T04:55:32.680Z,1.3831
2023-03-27T04:56:34.363Z,1.3493
2023-03-27T04:57:35.987Z,1.5600
2023-03-27T04:58:37.945Z,1.6212
2023-03-27T04:59:39.301Z,1.9400
2023-03-27T05:00:40.987Z,1.5195
2023-03-27T05:01:42.606Z,2.0027
2023-03-27T05:02:44.270Z,1.5948
2023-03-27T05:03:45.976Z,1.3537
2023-03-27T05:04:47.551Z,1.5522
2023-03-27T05:05:49.190Z,1.9334
2023-03-27T05:06:50.872Z,1.5110
2023-03-27T05:07:52.580Z,1.5859
2023-03-27T05:08:54.177Z,1.4492
2023-03-27T05:09:55.777Z,1.3237
2023-03-27T05:10:57.712Z,1.3527
2023-03-27T05:11:59.098Z,1.5116
2023-03-27T05:13:00.769Z,1.1776
2023-03-27T05:14:02.426Z,1.4343
2023-03-27T05:15:04.089Z,1.4790
2023-03-27T05:16:05.720Z,1.2693
2023-03-27T05:17:07.374Z,1.0397
2023-03-27T05:18:09.322Z,1.4121
2023-03-27T05:19:10.767Z,1.3574
2023-03-27T05:20:12.319Z,1.2912
2023-03-27T05:21:13.974Z,1.2847
2023-03-27T05:22:15.626Z,1.2130
2023-03-27T05:23:17.288Z,1.1392
2023-03-27T05:24:18.931Z,1.2361
2023-03-27T05:25:20.586Z,1.2792
2023-03-27T05:26:22.215Z,1.5329
2023-03-27T05:27:23.923Z,1.6104
2023-03-27T05:28:25.525Z,1.2701
2023-03-27T05:29:27.232Z,1.4169
2023-03-27T05:30:28.927Z,1.3446
2023-03-27T05:31:30.573Z,1.3069
2023-03-27T05:32:32.170Z,1.5735
2023-03-27T05:33:33.785Z,1.6858
2023-03-27T05:34:35.496Z,1.7930
2023-03-27T05:35:37.125Z,1.7103
2023-03-27T05:36:38.773Z,2.8503
2023-03-27T05:37:40.405Z,3.8644
2023-03-27T05:38:42.064Z,3.5824
2023-03-27T05:39:43.732Z,2.6477
2023-03-27T05:40:45.374Z,2.4701
2023-03-27T05:41:47.005Z,2.1866
2023-03-27T05:42:48.674Z,1.8288
2023-03-27T05:43:51.241Z,2.0667
2023-03-27T05:44:51.996Z,1.8566
2023-03-27T05:45:53.626Z,1.8214
2023-03-27T05:46:55.291Z,1.5739
2023-03-27T05:47:56.991Z,1.7699
2023-03-27T05:48:58.592Z,1.6397
2023-03-27T05:50:00.249Z,1.5388
2023-03-27T05:51:01.903Z,1.8793
2023-03-27T05:52:03.510Z,2.0687
2023-03-27T05:53:05.200Z,2.5784
2023-03-27T05:54:06.809Z,1.9368
2023-03-27T05:55:08.523Z,1.8015
2023-03-27T05:56:10.116Z,1.7604
2023-03-27T05:57:11.914Z,1.5102
2023-03-27T05:58:13.462Z,1.8340
2023-03-27T05:59:15.077Z,1.9320
2023-03-27T06:00:16.762Z,1.6974
2023-03-27T06:01:18.388Z,1.8833
2023-03-27T06:02:21.517Z,1.9922
2023-03-27T06:03:21.876Z,1.7982
2023-03-27T06:04:23.358Z,1.8414
2023-03-27T06:05:25.023Z,1.9161
2023-03-27T06:06:26.637Z,1.6245
2023-03-27T06:07:28.305Z,1.6737
2023-03-27T06:08:29.933Z,2.0040
2023-03-27T06:09:31.583Z,1.7531
2023-03-27T06:10:33.250Z,1.9005
2023-03-27T06:11:34.889Z,1.4995
2023-03-27T06:12:36.526Z,1.9394
2023-03-27T06:13:38.260Z,1.9282
2023-03-27T06:14:39.906Z,1.7519
2023-03-27T06:15:41.635Z,1.8271
2023-03-27T06:16:43.201Z,1.8339
2023-03-27T06:17:44.894Z,1.6555
2023-03-27T06:18:46.498Z,1.7312
2023-03-27T06:19:48.184Z,1.4616
2023-03-27T06:20:49.815Z,1.3594
2023-03-27T06:21:51.460Z,1.6188
2023-03-27T06:22:53.104Z,1.8059
2023-03-27T06:23:54.763Z,1.4834
2023-03-27T06:24:56.389Z,1.7899
2023-03-27T06:25:58.378Z,1.7860
2023-03-27T06:26:59.691Z,1.6612
2023-03-27T06:28:01.364Z,1.6029
2023-03-27T06:29:08.142Z,1.9197
2023-03-27T06:30:04.676Z,1.5068
2023-03-27T06:31:06.355Z,1.5491
2023-03-27T06:32:07.981Z,1.7959
2023-03-27T06:33:09.621Z,1.4859
2023-03-27T06:34:11.284Z,1.6751
2023-03-27T06:35:12.896Z,1.7879
2023-03-27T06:36:14.625Z,1.6669
2023-03-27T06:37:16.181Z,1.6737
2023-03-27T06:38:17.862Z,1.5454
2023-03-27T06:39:19.479Z,1.6527
2023-03-27T06:40:21.139Z,1.6970
2023-03-27T06:41:22.802Z,1.4981
2023-03-27T06:42:24.445Z,1.6394
2023-03-27T06:43:26.075Z,1.5003
2023-03-27T06:44:27.738Z,1.4814
2023-03-27T06:45:29.393Z,1.5828
2023-03-27T06:46:42.688Z,1.4760
2023-03-27T06:47:36.382Z,1.3793
2023-03-27T06:48:34.366Z,1.3736
2023-03-27T06:49:35.975Z,1.4481
2023-03-27T06:50:37.629Z,1.4171
2023-03-27T06:51:39.281Z,1.4374
2023-03-27T06:52:40.928Z,1.4188
2023-03-27T06:53:42.558Z,1.3681
2023-03-27T06:54:44.216Z,1.4244
2023-03-27T06:55:45.868Z,1.4503
2023-03-27T06:56:47.610Z,1.4533
2023-03-27T06:57:49.166Z,1.3806
2023-03-27T06:58:50.836Z,1.3839
2023-03-27T06:59:52.488Z,1.5284
2023-03-27T07:00:54.129Z,1.5568
2023-03-27T07:01:55.830Z,1.5992
2023-03-27T07:02:57.420Z,1.5670
2023-03-27T07:03:59.065Z,1.5463
2023-03-27T07:05:04.649Z,1.3740
2023-03-27T07:06:02.556Z,1.3541
2023-03-27T07:07:04.049Z,1.2151
2023-03-27T07:08:18.997Z,1.1224
2023-03-27T07:09:07.318Z,1.2250
2023-03-27T07:10:08.962Z,1.5292
2023-03-27T07:11:12.266Z,1.3037
2023-03-27T07:12:12.278Z,1.3484
2023-03-27T07:13:13.919Z,1.2002
2023-03-27T07:14:15.589Z,1.2765
2023-03-27T07:15:17.295Z,1.3514
2023-03-27T07:16:18.892Z,1.4112
2023-03-27T07:17:20.532Z,1.3696
2023-03-27T07:18:22.216Z,1.5207
2023-03-27T07:19:23.822Z,1.2307
2023-03-27T07:20:25.473Z,1.0989
2023-03-27T07:21:27.137Z,1.0816
2023-03-27T07:22:28.799Z,0.9975
2023-03-27T07:23:30.435Z,1.4169
2023-03-27T07:24:32.060Z,1.1724
2023-03-27T07:25:33.744Z,1.1515
2023-03-27T07:26:35.354Z,1.3384
2023-03-27T07:27:37.063Z,1.3288
2023-03-27T07:28:38.729Z,1.2205
2023-03-27T07:29:40.337Z,1.3668
2023-03-27T07:30:41.983Z,1.0435
2023-03-27T07:31:57.525Z,1.2718
2023-03-27T07:32:45.408Z,1.1351
2023-03-27T07:33:47.068Z,1.1562
2023-03-27T07:34:48.579Z,1.2209
2023-03-27T07:35:50.256Z,1.4509
2023-03-27T07:36:51.894Z,1.4116
2023-03-27T07:37:53.579Z,1.3600
2023-03-27T07:38:55.184Z,1.3473
2023-03-27T07:39:56.847Z,1.5355
2023-03-27T07:40:58.504Z,1.4618
2023-03-27T07:42:00.164Z,1.0915
2023-03-27T07:43:01.834Z,1.0413
2023-03-27T07:44:03.464Z,1.1928
2023-03-27T07:45:05.090Z,1.0571
2023-03-27T07:46:06.803Z,1.1478
2023-03-27T07:47:08.397Z,1.2961
2023-03-27T07:48:10.087Z,1.2172
2023-03-27T07:49:11.685Z,1.1583
2023-03-27T07:50:13.380Z,1.1167
2023-03-27T07:51:14.982Z,1.2094
2023-03-27T07:52:16.738Z,1.3146
2023-03-27T07:53:32.806Z,1.1517
2023-03-27T07:54:19.945Z,1.2453
2023-03-27T07:55:21.582Z,1.1609
2023-03-27T07:56:23.276Z,1.3505
2023-03-27T07:57:25.041Z,1.3852
2023-03-27T07:58:26.857Z,1.3476
2023-03-27T07:59:28.197Z,1.3281
2023-03-27T08:00:29.980Z,1.2507
2023-03-27T08:01:31.480Z,1.2199
2023-03-27T08:02:33.188Z,1.2445
2023-03-27T08:03:34.922Z,1.1448
2023-03-27T08:04:36.584Z,1.3023
2023-03-27T08:05:38.080Z,1.1915
2023-03-27T08:06:39.751Z,1.0830
2023-03-27T08:07:41.389Z,1.1769
2023-03-27T08:08:43.092Z,1.1785
2023-03-27T08:09:44.697Z,1.2157
2023-03-27T08:10:46.361Z,1.0163
2023-03-27T08:11:48.010Z,1.1047
2023-03-27T08:12:49.668Z,1.0178
2023-03-27T08:13:51.330Z,1.4303
2023-03-27T08:14:52.968Z,1.2250
2023-03-27T08:15:54.750Z,1.0598
2023-03-27T08:17:08.648Z,1.2140
2023-03-27T08:17:57.937Z,1.1771
2023-03-27T08:18:59.640Z,1.4250
2023-03-27T08:20:01.226Z,1.0875
2023-03-27T08:21:02.957Z,1.1560
2023-03-27T08:22:04.501Z,0.9919
2023-03-27T08:23:06.191Z,1.0805
2023-03-27T08:24:07.833Z,1.1483
2023-03-27T08:25:09.502Z,1.1447
2023-03-27T08:26:11.101Z,0.9976
2023-03-27T08:27:12.798Z,1.0518
2023-03-27T08:28:14.433Z,1.0655
2023-03-27T08:29:16.138Z,1.1135
2023-03-27T08:30:17.794Z,1.4215
2023-03-27T08:31:19.487Z,1.1446
2023-03-27T08:32:21.035Z,1.2173
2023-03-27T08:33:22.739Z,1.3941
2023-03-27T08:34:24.397Z,1.2824
2023-03-27T08:35:26.026Z,1.1293
2023-03-27T08:36:27.632Z,1.1115
2023-03-27T08:37:29.265Z,0.9188
2023-03-27T08:38:30.964Z,1.0910
2023-03-27T08:39:32.630Z,1.0864
2023-03-27T08:40:34.219Z,1.1625
2023-03-27T08:41:35.882Z,1.2269
2023-03-27T08:42:37.556Z,1.1687
2023-03-27T08:43:39.142Z,1.0607
2023-03-27T08:44:40.873Z,1.1691
2023-03-27T08:45:42.470Z,1.0500
2023-03-27T08:46:44.136Z,1.3282
2023-03-27T08:48:48.556Z,1.2499
2023-03-27T08:49:50.144Z,1.0294
2023-03-27T08:50:51.817Z,1.2112
2023-03-27T08:51:53.406Z,1.1871
2023-03-27T08:52:55.059Z,0.8301
2023-03-27T08:53:56.719Z,1.2501
2023-03-27T08:54:58.502Z,1.0920
2023-03-27T08:56:00.003Z,1.1684
2023-03-27T08:57:01.759Z,0.9880
2023-03-27T08:58:03.334Z,0.9307
2023-03-27T08:59:04.992Z,1.2494
2023-03-27T09:00:06.650Z,1.2202
2023-03-27T09:01:08.301Z,1.0961
2023-03-27T09:02:09.989Z,1.2850
2023-03-27T09:03:11.721Z,0.9725
2023-03-27T09:04:13.218Z,0.9207
2023-03-27T09:05:14.931Z,0.9283
2023-03-27T09:06:16.567Z,1.1487
2023-03-27T09:07:18.188Z,1.1056
2023-03-27T09:08:19.804Z,0.9650
2023-03-27T09:09:21.461Z,1.2682
2023-03-27T09:10:23.199Z,1.1121
2023-03-27T09:11:24.804Z,1.0628
2023-03-27T09:12:26.430Z,1.0112
2023-03-27T09:13:28.027Z,1.1241
2023-03-27T09:14:29.686Z,1.0273
2023-03-27T09:15:31.384Z,1.0510
2023-03-27T09:16:33.122Z,1.2647
2023-03-27T09:17:34.683Z,1.1749
2023-03-27T09:18:36.316Z,1.0057
2023-03-27T09:19:37.947Z,1.0966
2023-03-27T09:20:39.662Z,1.0749
2023-03-27T09:21:41.229Z,1.1401
2023-03-27T09:22:42.904Z,1.1818
2023-03-27T09:23:44.523Z,1.0839
2023-03-27T09:24:46.236Z,0.9091
2023-03-27T09:25:47.926Z,1.0656
2023-03-27T09:27:01.072Z,1.0867
2023-03-27T09:27:51.132Z,0.9863
2023-03-27T09:28:52.806Z,1.1936
2023-03-27T09:30:05.960Z,1.0162
2023-03-27T09:30:56.226Z,0.9807
2023-03-27T09:31:57.744Z,1.1541
2023-03-27T09:32:59.448Z,0.9107
2023-03-27T09:34:01.001Z,1.0912
2023-03-27T09:35:02.752Z,1.1374
2023-03-27T09:36:04.460Z,1.0638
2023-03-27T09:37:06.056Z,1.0173
2023-03-27T09:38:07.640Z,0.9740
2023-03-27T09:39:09.314Z,1.0701
2023-03-27T09:40:10.954Z,0.9896
2023-03-27T09:41:12.634Z,1.0029
2023-03-27T09:42:14.238Z,1.1463
2023-03-27T09:43:15.920Z,1.1590
2023-03-27T09:44:17.596Z,1.1075
2023-03-27T09:45:19.301Z,1.0474
2023-03-27T09:46:20.933Z,1.2549
2023-03-27T09:47:22.520Z,1.3070
2023-03-27T09:48:24.185Z,1.0661
2023-03-27T09:49:25.814Z,1.2053
2023-03-27T09:50:27.945Z,1.0298
2023-03-27T09:51:29.269Z,0.9916
2023-03-27T09:52:30.711Z,0.8761
2023-03-27T09:53:32.434Z,1.2372
2023-03-27T09:54:34.058Z,1.0346
2023-03-27T09:55:35.717Z,0.9994
2023-03-27T09:56:37.392Z,1.0182
2023-03-27T09:57:39.077Z,0.8588
2023-03-27T09:58:40.678Z,1.1878
2023-03-27T09:59:42.307Z,1.0783
2023-03-27T10:00:44.031Z,1.0308
2023-03-27T10:01:45.632Z,1.0412
2023-03-27T10:02:47.297Z,0.8741
2023-03-27T10:03:49.108Z,1.1420
2023-03-27T10:04:50.548Z,0.9919
2023-03-27T10:05:52.216Z,1.0751
2023-03-27T10:06:53.852Z,0.8671
2023-03-27T10:07:55.522Z,0.8960
2023-03-27T10:08:57.165Z,1.0879
2023-03-27T10:09:58.836Z,0.8799
2023-03-27T10:11:00.485Z,0.8776
2023-03-27T10:12:02.190Z,0.9294
2023-03-27T10:13:03.767Z,0.8393
2023-03-27T10:14:05.454Z,0.8350
2023-03-27T10:15:07.112Z,0.8648
2023-03-27T10:16:08.837Z,1.1218
2023-03-27T10:17:10.450Z,1.0087
2023-03-27T10:18:12.199Z,1.1627
2023-03-27T10:19:13.855Z,1.0193
2023-03-27T10:20:15.491Z,1.1742
2023-03-27T10:21:17.100Z,1.3636
2023-03-27T10:22:18.766Z,1.0012
2023-03-27T10:23:20.359Z,1.1132
2023-03-27T10:24:22.005Z,1.1560
2023-03-27T10:25:23.678Z,0.9913
2023-03-27T10:26:25.343Z,0.9345
2023-03-27T10:27:26.976Z,1.2322
2023-03-27T10:28:28.609Z,1.1667
2023-03-27T10:29:30.262Z,0.8406
2023-03-27T10:30:31.912Z,0.9946
2023-03-27T10:31:33.588Z,1.1556
2023-03-27T10:32:35.268Z,0.8696
2023-03-27T10:33:36.885Z,0.7887
2023-03-27T10:34:38.517Z,0.8210
2023-03-27T10:35:40.179Z,0.9789
2023-03-27T10:36:41.842Z,1.0187
2023-03-27T10:37:49.773Z,1.1078
2023-03-27T10:38:45.132Z,0.9070
2023-03-27T10:39:46.756Z,1.0040
2023-03-27T10:40:48.426Z,0.9557
2023-03-27T10:41:50.067Z,1.1652
2023-03-27T10:42:51.782Z,0.8057
2023-03-27T10:43:53.360Z,1.1807
2023-03-27T10:44:55.030Z,1.1369
2023-03-27T10:45:56.764Z,1.1685
2023-03-27T10:46:58.347Z,0.9201
2023-03-27T10:48:00.038Z,1.0537
2023-03-27T10:49:01.635Z,0.8150
2023-03-27T10:50:03.267Z,1.1008
2023-03-27T10:51:04.945Z,1.0945
2023-03-27T10:52:06.560Z,0.8672
2023-03-27T10:53:08.336Z,1.0735
2023-03-27T10:54:09.902Z,0.9412
2023-03-27T10:55:11.537Z,1.1107
2023-03-27T10:56:13.176Z,1.1608
2023-03-27T10:57:14.868Z,0.8186
2023-03-27T10:58:16.481Z,0.8374
2023-03-27T10:59:21.509Z,1.0171
2023-03-27T11:00:19.763Z,1.3262
2023-03-27T11:01:21.505Z,0.8642
2023-03-27T11:02:23.115Z,0.9499
2023-03-27T11:03:24.807Z,1.1330
2023-03-27T11:04:26.378Z,0.8828
2023-03-27T11:05:28.092Z,1.0089
2023-03-27T11:06:29.698Z,0.9582
2023-03-27T11:07:31.369Z,0.8891
2023-03-27T11:08:33.062Z,0.9946
2023-03-27T11:09:34.708Z,0.8934
2023-03-27T11:10:36.320Z,0.7789
2023-03-27T11:11:38.031Z,0.8870
2023-03-27T11:12:39.608Z,1.0430
2023-03-27T11:13:41.279Z,0.8841
2023-03-27T11:14:42.917Z,1.1232
2023-03-27T11:15:44.608Z,0.9583
2023-03-27T11:16:46.242Z,1.0178
2023-03-27T11:17:47.905Z,0.8437
2023-03-27T11:18:49.573Z,1.0480
2023-03-27T11:19:51.176Z,1.1011
2023-03-27T11:20:52.789Z,1.0191
2023-03-27T11:21:54.485Z,0.9693
2023-03-27T11:22:56.138Z,0.9533
2023-03-27T11:23:57.926Z,1.0175
2023-03-27T11:24:59.429Z,0.7944
2023-03-27T11:26:01.075Z,0.7389
2023-03-27T11:27:02.754Z,0.9153
2023-03-27T11:28:04.444Z,0.9180
2023-03-27T11:29:06.059Z,1.1609
2023-03-27T11:30:07.705Z,0.8601
2023-03-27T11:31:12.112Z,0.8287
2023-03-27T11:32:10.995Z,1.3105
2023-03-27T11:33:12.608Z,1.2155
2023-03-27T11:34:14.345Z,0.9260
2023-03-27T11:35:15.923Z,1.1017
2023-03-27T11:36:17.619Z,1.0982
2023-03-27T11:37:19.217Z,0.9650
2023-03-27T11:38:20.911Z,1.0963
2023-03-27T11:39:22.626Z,1.0472
2023-03-27T11:40:24.232Z,0.9690
2023-03-27T11:41:25.847Z,0.8092
2023-03-27T11:42:27.604Z,0.7720
2023-03-27T11:43:29.135Z,1.0366
2023-03-27T11:44:30.847Z,1.4031
2023-03-27T11:45:32.452Z,0.9566
2023-03-27T11:46:34.168Z,1.0048
2023-03-27T11:47:35.759Z,0.9123
2023-03-27T11:48:37.394Z,0.8788
2023-03-27T11:49:39.141Z,0.8131
2023-03-27T11:50:40.750Z,0.9899
2023-03-27T11:51:42.403Z,1.1090
2023-03-27T11:52:43.997Z,0.8180
2023-03-27T11:53:45.684Z,0.6630
2023-03-27T11:54:47.379Z,0.9158
2023-03-27T11:55:49.008Z,0.9075
2023-03-27T11:56:50.643Z,0.8818
2023-03-27T11:57:52.278Z,1.0658
2023-03-27T11:58:53.917Z,0.8576
2023-03-27T11:59:55.616Z,0.6944
2023-03-27T12:00:57.393Z,0.9017
2023-03-27T12:01:58.936Z,1.0137
2023-03-27T12:03:00.574Z,0.9829
2023-03-27T12:04:02.320Z,1.0236
2023-03-27T12:05:03.866Z,0.8413
2023-03-27T12:06:05.556Z,0.8524
2023-03-27T12:07:09.836Z,0.9674
2023-03-27T12:08:08.790Z,0.9469
2023-03-27T12:09:10.428Z,0.7682
2023-03-27T12:10:12.140Z,0.7438
2023-03-27T12:11:13.716Z,0.9644
2023-03-27T12:12:15.391Z,0.9087
2023-03-27T12:13:17.021Z,0.9272
2023-03-27T12:14:19.140Z,1.0403
2023-03-27T12:15:20.421Z,0.8396
2023-03-27T12:16:22.092Z,0.8099
2023-03-27T12:17:23.725Z,0.8740
2023-03-27T12:18:35.277Z,0.7459
2023-03-27T12:19:29.680Z,0.9491
2023-03-27T12:20:28.745Z,0.9265
2023-03-27T12:21:30.330Z,0.7669
2023-03-27T12:22:31.921Z,0.9444
2023-03-27T12:23:33.522Z,0.9731
2023-03-27T12:24:35.196Z,0.8732
2023-03-27T12:25:36.931Z,0.8386
2023-03-27T12:26:38.626Z,0.7224
2023-03-27T12:27:40.163Z,1.1246
2023-03-27T12:28:41.864Z,0.9424
2023-03-27T12:29:43.447Z,0.8887
2023-03-27T12:30:45.159Z,1.0492
2023-03-27T12:31:46.757Z,0.8959
2023-03-27T12:32:48.452Z,1.0216
2023-03-27T12:33:50.010Z,1.0640
2023-03-27T12:34:51.712Z,0.7313
2023-03-27T12:35:53.444Z,1.0890
2023-03-27T12:36:55.011Z,0.9519
2023-03-27T12:37:56.633Z,0.9662
2023-03-27T12:38:58.285Z,0.9032
2023-03-27T12:39:59.935Z,0.9882
2023-03-27T12:41:01.618Z,0.9194
2023-03-27T12:42:03.258Z,0.8470
2023-03-27T12:43:04.918Z,1.0378
2023-03-27T12:44:06.522Z,0.8165
2023-03-27T12:45:08.223Z,0.8569
2023-03-27T12:46:09.897Z,1.2142
2023-03-27T12:47:11.502Z,1.0042
2023-03-27T12:48:13.162Z,1.0292
2023-03-27T12:49:14.804Z,1.0583
2023-03-27T12:50:16.446Z,0.8210